Time;durP1;ratioP1;P1;durP2;ratioP2;P2;SDS_P1;SDS_P2;PMS_P1;PMS_P2;Temp;Humidity;BMP_temperature;BMP_pressure;BME280_temperature;BME280_humidity;BME280_pressure;Samples;Min_cycle;Max_cycle;Signal;HPM_P1;HPM_P2
2024/04/21 00:02:38;;;;;;;;;;;;;;;6.41;69.60;98037.88;5442631;26;19944;-72
2024/04/21 00:05:26;;;;;;;;;;;;;;;6.33;69.78;98040.34;5439783;26;19933;-75
2024/04/21 00:08:15;;;;;;;;;;;;;;;6.33;69.65;98043.06;5437923;26;19997;-74
2024/04/21 00:11:06;;;;;;;;;;;;;;;6.38;69.75;98032.22;5445821;26;19932;-71
2024/04/21 00:13:55;;;;;;;;;;;;;;;6.38;69.27;98045.72;5437447;26;19947;-72
2024/04/21 00:16:43;;;;;;;;;;;;;;;6.36;69.04;98031.72;5437940;26;19929;-73
2024/04/21 00:19:33;;;;;;;;;;;;;;;6.39;69.07;98039.22;5429488;26;20415;-75
2024/04/21 00:22:20;;;;;;;;;;;;;;;6.24;69.11;98032.88;5420398;26;19940;-73
2024/04/21 00:25:10;;;;;;;;;;;;;;;6.19;69.70;98026.69;5417584;26;19929;-74
2024/04/21 00:28:00;;;;;;;;;;;;;;;6.18;69.80;98022.38;5411284;26;19933;-72
2024/04/21 00:30:49;;;;;;;;;;;;;;;6.09;69.54;98024.88;5438080;26;20371;-74
2024/04/21 00:33:37;;;;;;;;;;;;;;;6.03;69.80;98020.59;5409410;26;19939;-72
2024/04/21 00:36:27;;;;;;;;;;;;;;;5.90;69.82;98015.78;5448647;26;19975;-73
2024/04/21 00:39:15;;;;;;;;;;;;;;;5.98;69.97;98009.84;5438990;26;19994;-73
2024/04/21 00:42:05;;;;;;;;;;;;;;;6.12;69.71;98010.81;5422247;26;20033;-71
2024/04/21 00:44:55;;;;;;;;;;;;;;;6.00;70.08;98013.84;5409520;26;19944;-72
2024/04/21 00:47:44;;;;;;;;;;;;;;;6.08;70.02;98004.38;5416019;26;19933;-72
2024/04/21 00:50:32;;;;;;;;;;;;;;;6.09;70.39;98002.50;5411577;26;19933;-72
2024/04/21 00:53:23;;;;;;;;;;;;;;;6.05;69.41;97999.53;5416509;26;19935;-73
2024/04/21 00:56:11;;;;;;;;;;;;;;;6.11;69.82;97990.31;5409701;26;19935;-73
2024/04/21 00:59:02;;;;;;;;;;;;;;;6.05;69.98;97983.34;5443378;26;20325;-74
2024/04/21 01:01:55;;;;;;;;;;;;;;;6.11;69.75;97976.03;5437235;26;19929;-72
2024/04/21 01:04:42;;;;;;;;;;;;;;;6.11;69.46;97971.44;5425222;26;19936;-71
2024/04/21 01:07:32;;;;;;;;;;;;;;;6.06;70.00;97966.09;5440845;26;19929;-71
2024/04/21 01:10:19;;;;;;;;;;;;;;;6.06;69.34;97963.38;5447834;26;19948;-71
2024/04/21 01:13:13;;;;;;;;;;;;;;;6.05;69.37;97964.47;5416994;26;19936;-71
2024/04/21 01:16:00;;;;;;;;;;;;;;;5.94;69.33;97977.22;5445386;26;20411;-70
2024/04/21 01:18:53;;;;;;;;;;;;;;;5.88;69.54;97975.63;5448556;26;19936;-71
2024/04/21 01:21:40;;;;;;;;;;;;;;;5.89;70.12;97973.72;5420008;26;19941;-71
2024/04/21 01:24:32;;;;;;;;;;;;;;;5.97;69.46;97981.25;5424839;26;19997;-71
2024/04/21 01:27:19;;;;;;;;;;;;;;;5.82;70.08;97981.31;5451331;26;19935;-70
2024/04/21 01:30:10;;;;;;;;;;;;;;;5.65;69.62;97979.78;5449894;26;19929;-70
2024/04/21 01:32:58;;;;;;;;;;;;;;;5.53;70.10;97971.22;5452313;26;19928;-70
2024/04/21 01:35:49;;;;;;;;;;;;;;;5.61;70.29;97973.34;5452574;26;19994;-71
2024/04/21 01:38:39;;;;;;;;;;;;;;;5.53;70.14;97968.50;5445822;26;19937;-70
2024/04/21 01:41:29;;;;;;;;;;;;;;;5.67;69.83;97961.44;5452055;26;19929;-71
2024/04/21 01:44:19;;;;;;;;;;;;;;;5.58;70.11;97963.09;5426017;26;19936;-71
2024/04/21 01:47:07;;;;;;;;;;;;;;;5.59;70.00;97956.63;5449072;26;20372;-69
2024/04/21 01:49:58;;;;;;;;;;;;;;;5.50;70.72;97950.22;5425088;26;19995;-70
2024/04/21 01:52:45;;;;;;;;;;;;;;;5.50;70.13;97948.31;5451032;26;19929;-71
2024/04/21 01:55:35;;;;;;;;;;;;;;;5.38;70.78;97941.63;5431659;26;20368;-70
2024/04/21 01:58:25;;;;;;;;;;;;;;;5.41;71.77;97941.91;5448996;26;19985;-71
2024/04/21 02:01:15;;;;;;;;;;;;;;;5.29;71.93;97935.22;5418587;26;19936;-70
2024/04/21 02:04:02;;;;;;;;;;;;;;;5.45;71.65;97931.38;5419076;26;19929;-71
2024/04/21 02:06:53;;;;;;;;;;;;;;;5.45;72.13;97928.69;5443937;26;19940;-70
2024/04/21 02:09:44;;;;;;;;;;;;;;;5.52;72.03;97926.47;5442709;26;19929;-70
2024/04/21 02:12:34;;;;;;;;;;;;;;;5.46;73.03;97914.94;5451044;26;20001;-70
2024/04/21 02:15:26;;;;;;;;;;;;;;;5.52;73.41;97916.50;5423949;26;19940;-73
2024/04/21 02:18:13;;;;;;;;;;;;;;;5.61;72.75;97905.97;5437655;26;19934;-73
2024/04/21 02:21:03;;;;;;;;;;;;;;;5.61;72.78;97910.56;5448594;26;19952;-75
2024/04/21 02:23:50;;;;;;;;;;;;;;;5.64;73.18;97896.50;5437018;26;19953;-74
2024/04/21 02:26:40;;;;;;;;;;;;;;;5.69;72.72;97899.97;5430799;26;19928;-73
2024/04/21 02:29:27;;;;;;;;;;;;;;;5.66;72.99;97897.03;5442749;26;19928;-75
2024/04/21 02:32:20;;;;;;;;;;;;;;;5.65;73.59;97882.75;5431544;26;19994;-75
2024/04/21 02:35:07;;;;;;;;;;;;;;;5.59;73.55;97891.94;5433153;26;19941;-74
2024/04/21 02:37:57;;;;;;;;;;;;;;;5.63;74.22;97889.50;5410736;26;20460;-75
2024/04/21 02:40:47;;;;;;;;;;;;;;;5.39;74.51;97884.81;5424325;26;19935;-73
2024/04/21 02:43:34;;;;;;;;;;;;;;;5.64;74.57;97875.75;5440387;26;19933;-73
2024/04/21 02:46:24;;;;;;;;;;;;;;;5.49;75.44;97873.97;5435420;26;19929;-74
2024/04/21 02:49:15;;;;;;;;;;;;;;;5.45;75.30;97864.81;5417147;26;19934;-75
2024/04/21 02:52:05;;;;;;;;;;;;;;;5.46;76.23;97868.31;5415569;26;19929;-73
2024/04/21 02:54:53;;;;;;;;;;;;;;;5.48;76.09;97863.44;5457138;26;19936;-73
2024/04/21 02:57:43;;;;;;;;;;;;;;;5.48;76.59;97860.75;5434482;26;19936;-73
2024/04/21 03:00:30;;;;;;;;;;;;;;;5.42;77.12;97859.97;5444655;26;19936;-74
2024/04/21 03:03:20;;;;;;;;;;;;;;;5.35;77.65;97858.69;5423186;26;19935;-73
2024/04/21 03:06:10;;;;;;;;;;;;;;;5.25;77.90;97852.28;5439455;26;19940;-74
2024/04/21 03:09:00;;;;;;;;;;;;;;;5.33;78.78;97842.81;5446562;26;19936;-73
2024/04/21 03:11:47;;;;;;;;;;;;;;;5.44;78.31;97844.38;5416743;26;19928;-74
2024/04/21 03:14:37;;;;;;;;;;;;;;;5.35;77.61;97840.63;5415984;26;19928;-75
2024/04/21 03:17:24;;;;;;;;;;;;;;;5.34;77.67;97832.84;5434283;26;19953;-74
2024/04/21 03:20:14;;;;;;;;;;;;;;;5.10;76.96;97841.59;5448390;26;19928;-74
2024/04/21 03:23:04;;;;;;;;;;;;;;;5.11;77.93;97823.53;5440243;26;19932;-69
2024/04/21 03:25:54;;;;;;;;;;;;;;;5.06;78.73;97821.69;5431049;26;19944;-69
2024/04/21 03:28:41;;;;;;;;;;;;;;;5.08;78.10;97819.53;5434142;26;19996;-69
2024/04/21 03:31:31;;;;;;;;;;;;;;;5.07;78.65;97812.53;5443682;26;19933;-69
2024/04/21 03:34:18;;;;;;;;;;;;;;;5.15;78.41;97819.22;5443458;26;20026;-70
2024/04/21 03:37:09;;;;;;;;;;;;;;;5.08;78.85;97810.63;5422915;26;19936;-69
2024/04/21 03:40:02;;;;;;;;;;;;;;;4.93;78.68;97814.22;5417342;26;20458;-69
2024/04/21 03:42:52;;;;;;;;;;;;;;;5.03;78.70;97805.28;5438663;26;19940;-69
2024/04/21 03:45:42;;;;;;;;;;;;;;;5.01;78.79;97808.25;5419495;26;19935;-69
2024/04/21 03:48:29;;;;;;;;;;;;;;;5.05;78.95;97801.22;5446673;26;19928;-69
2024/04/21 03:51:19;;;;;;;;;;;;;;;4.91;77.91;97802.94;5448483;26;19960;-69
2024/04/21 03:54:06;;;;;;;;;;;;;;;4.96;78.24;97795.63;5423047;26;19928;-70
2024/04/21 03:57:00;;;;;;;;;;;;;;;5.00;77.06;97795.84;5439991;26;19929;-70
2024/04/21 03:59:49;;;;;;;;;;;;;;;4.99;77.00;97794.25;5412700;26;20510;-70
2024/04/21 04:02:39;;;;;;;;;;;;;;;4.95;77.00;97795.88;5419589;26;20407;-69
2024/04/21 04:05:26;;;;;;;;;;;;;;;4.99;77.39;97796.94;5443421;26;19957;-70
2024/04/21 04:08:16;;;;;;;;;;;;;;;4.99;77.33;97783.47;5418021;26;20307;-70
2024/04/21 04:11:04;;;;;;;;;;;;;;;4.97;77.21;97785.66;5453303;26;19941;-69
2024/04/21 04:13:58;;;;;;;;;;;;;;;4.98;76.83;97788.06;5431130;26;19935;-69
2024/04/21 04:16:45;;;;;;;;;;;;;;;5.10;76.61;97778.84;5430026;26;19973;-70
2024/04/21 04:19:35;;;;;;;;;;;;;;;5.10;76.12;97778.84;5417741;26;19932;-70
2024/04/21 04:22:26;;;;;;;;;;;;;;;5.10;75.28;97776.16;5440563;26;19937;-70
2024/04/21 04:25:16;;;;;;;;;;;;;;;5.16;75.40;97775.84;5428494;26;19997;-70
2024/04/21 04:28:03;;;;;;;;;;;;;;;5.06;75.30;97775.94;5446309;26;19941;-69
2024/04/21 04:30:56;;;;;;;;;;;;;;;5.12;75.48;97771.31;5418915;26;20557;-69
2024/04/21 04:33:43;;;;;;;;;;;;;;;5.19;75.31;97777.97;5427165;26;20702;-72
2024/04/21 04:36:33;;;;;;;;;;;;;;;5.12;75.33;97772.13;5415064;26;20376;-72
2024/04/21 04:39:23;;;;;;;;;;;;;;;5.08;75.64;97773.75;5439260;26;19963;-72
2024/04/21 04:42:10;;;;;;;;;;;;;;;5.14;75.22;97771.81;5443081;26;19936;-71
2024/04/21 04:45:00;;;;;;;;;;;;;;;5.11;75.01;97766.97;5445462;26;20240;-73
2024/04/21 04:47:50;;;;;;;;;;;;;;;5.18;75.13;97768.28;5441020;26;19940;-72
2024/04/21 04:50:40;;;;;;;;;;;;;;;5.23;75.52;97770.97;5451147;26;19940;-74
2024/04/21 04:53:30;;;;;;;;;;;;;;;5.07;74.40;97768.66;5439471;26;19938;-72
2024/04/21 04:56:17;;;;;;;;;;;;;;;4.99;75.39;97768.13;5449308;26;19935;-72
2024/04/21 04:59:07;;;;;;;;;;;;;;;5.14;75.11;97775.31;5448234;26;19940;-72
2024/04/21 05:01:54;;;;;;;;;;;;;;;5.19;74.36;97772.59;5443126;26;19929;-73
2024/04/21 05:04:47;;;;;;;;;;;;;;;5.10;75.21;97768.88;5444595;26;19944;-72
2024/04/21 05:07:34;;;;;;;;;;;;;;;5.17;75.00;97769.38;5437339;26;20627;-72
2024/04/21 05:10:26;;;;;;;;;;;;;;;5.07;75.22;97774.03;5415221;26;19939;-72
2024/04/21 05:13:13;;;;;;;;;;;;;;;5.10;75.52;97774.25;5450281;26;20006;-73
2024/04/21 05:16:03;;;;;;;;;;;;;;;5.13;75.21;97770.22;5423311;26;20441;-72
2024/04/21 05:18:50;;;;;;;;;;;;;;;5.03;75.30;97767.59;5438448;26;19939;-72
2024/04/21 05:21:43;;;;;;;;;;;;;;;5.16;74.79;97770.44;5437370;26;20005;-72
2024/04/21 05:24:33;;;;;;;;;;;;;;;5.16;74.68;97773.13;5431432;26;19929;-72
2024/04/21 05:27:20;;;;;;;;;;;;;;;5.20;74.79;97776.09;5406813;26;19948;-72
2024/04/21 05:30:10;;;;;;;;;;;;;;;5.08;75.33;97768.38;5433256;26;19936;-72
2024/04/21 05:32:57;;;;;;;;;;;;;;;5.20;75.36;97768.00;5429482;26;19997;-72
2024/04/21 05:35:47;;;;;;;;;;;;;;;5.34;74.55;97777.06;5439455;26;20297;-73
2024/04/21 05:38:37;;;;;;;;;;;;;;;5.22;74.46;97771.25;5430414;26;19928;-78
2024/04/21 05:41:27;;;;;;;;;;;;;;;5.37;75.06;97771.13;5437618;26;19929;-73
2024/04/21 05:44:15;;;;;;;;;;;;;;;5.25;74.68;97776.84;5441352;26;20282;-68
2024/04/21 05:47:09;;;;;;;;;;;;;;;4.98;75.41;97773.81;5437237;26;19929;-71
2024/04/21 05:49:56;;;;;;;;;;;;;;;5.25;75.17;97776.06;5419095;26;19929;-68
2024/04/21 05:52:46;;;;;;;;;;;;;;;5.37;75.21;97778.41;5437580;26;19935;-68
2024/04/21 05:55:36;;;;;;;;;;;;;;;5.29;73.62;97779.81;5438188;26;19937;-68
2024/04/21 05:58:26;;;;;;;;;;;;;;;5.22;73.73;97780.13;5434052;26;19940;-68
2024/04/21 06:01:13;;;;;;;;;;;;;;;5.08;74.24;97776.44;5403896;26;19929;-67
2024/04/21 06:04:03;;;;;;;;;;;;;;;5.16;74.05;97786.59;5444192;26;19936;-67
2024/04/21 06:06:51;;;;;;;;;;;;;;;5.18;73.61;97781.75;5434558;26;19929;-68
2024/04/21 06:09:42;;;;;;;;;;;;;;;5.28;73.85;97786.28;5415208;26;19953;-68
2024/04/21 06:12:31;;;;;;;;;;;;;;;5.31;74.12;97784.91;5420919;26;19936;-68
2024/04/21 06:15:21;;;;;;;;;;;;;;;5.15;73.40;97790.38;5427620;26;19928;-70
2024/04/21 06:18:09;;;;;;;;;;;;;;;4.99;74.37;97791.56;5417605;26;19929;-67
2024/04/21 06:20:59;;;;;;;;;;;;;;;4.69;74.65;97798.72;5422619;26;19928;-67
2024/04/21 06:23:46;;;;;;;;;;;;;;;4.79;74.19;97795.16;5439421;26;19935;-67
2024/04/21 06:26:36;;;;;;;;;;;;;;;4.79;75.20;97794.34;5455422;26;19940;-67
2024/04/21 06:29:28;;;;;;;;;;;;;;;4.75;75.69;97796.00;5450371;26;19928;-68
2024/04/21 06:32:18;;;;;;;;;;;;;;;4.82;74.85;97789.22;5443887;26;19929;-69
2024/04/21 06:35:05;;;;;;;;;;;;;;;4.66;74.75;97796.56;5434517;26;19940;-70
2024/04/21 06:37:58;;;;;;;;;;;;;;;4.82;74.38;97783.84;5440960;26;19963;-69
2024/04/21 06:40:46;;;;;;;;;;;;;;;4.64;74.46;97795.25;5439554;26;19928;-69
2024/04/21 06:43:35;;;;;;;;;;;;;;;4.25;75.59;97801.28;5445122;26;20005;-69
2024/04/21 06:46:25;;;;;;;;;;;;;;;4.33;75.65;97791.84;5446366;26;19928;-70
2024/04/21 06:49:15;;;;;;;;;;;;;;;4.46;75.72;97797.44;5438173;26;19944;-69
2024/04/21 06:52:03;;;;;;;;;;;;;;;4.53;74.81;97797.16;5436486;26;22416;-69
2024/04/21 06:54:53;;;;;;;;;;;;;;;4.43;74.55;97805.28;5434319;26;20290;-72
2024/04/21 06:57:43;;;;;;;;;;;;;;;4.39;74.85;97801.50;5418538;26;19932;-72
2024/04/21 07:00:33;;;;;;;;;;;;;;;4.61;75.32;97807.34;5447756;26;19929;-71
2024/04/21 07:03:23;;;;;;;;;;;;;;;4.80;74.38;97804.06;5417669;26;19940;-74
2024/04/21 07:06:13;;;;;;;;;;;;;;;4.83;74.09;97808.88;5418489;26;19934;-72
2024/04/21 07:09:01;;;;;;;;;;;;;;;4.80;73.01;97820.22;5427221;26;19952;-74
2024/04/21 07:11:51;;;;;;;;;;;;;;;4.61;73.51;97815.41;5425248;26;19929;-74
2024/04/21 07:14:38;;;;;;;;;;;;;;;4.66;74.33;97812.72;5409935;26;19937;-76
2024/04/21 07:17:28;;;;;;;;;;;;;;;4.54;73.59;97819.50;5418431;26;20001;-74
2024/04/21 07:20:21;;;;;;;;;;;;;;;4.75;72.40;97809.47;5439746;26;19953;-74
2024/04/21 07:23:11;;;;;;;;;;;;;;;4.60;73.31;97811.13;5441666;26;19928;-71
2024/04/21 07:25:58;;;;;;;;;;;;;;;4.52;73.52;97810.88;5421803;26;20644;-75
2024/04/21 07:28:48;;;;;;;;;;;;;;;4.40;73.83;97824.63;5423396;26;19940;-78
2024/04/21 07:31:35;;;;;;;;;;;;;;;4.50;74.04;97821.13;5426936;26;19960;-74
2024/04/21 07:34:25;;;;;;;;;;;;;;;4.59;74.05;97817.59;5424357;26;19929;-72
2024/04/21 07:37:15;;;;;;;;;;;;;;;4.58;73.69;97826.75;5440535;26;20275;-72
2024/04/21 07:40:05;;;;;;;;;;;;;;;4.49;73.71;97820.31;5448273;26;19935;-72
2024/04/21 07:42:52;;;;;;;;;;;;;;;4.41;74.42;97820.88;5449483;26;19928;-72
2024/04/21 07:45:42;;;;;;;;;;;;;;;4.47;74.43;97828.66;5446357;26;19936;-71
2024/04/21 07:48:29;;;;;;;;;;;;;;;4.64;72.95;97827.53;5451694;26;19952;-71
2024/04/21 07:51:19;;;;;;;;;;;;;;;4.65;73.12;97827.25;5451185;26;19932;-72
2024/04/21 07:54:09;;;;;;;;;;;;;;;4.50;73.23;97834.56;5449853;26;19929;-72
2024/04/21 07:56:59;;;;;;;;;;;;;;;4.61;71.63;97831.56;5440611;26;19929;-72
2024/04/21 07:59:50;;;;;;;;;;;;;;;4.72;71.81;97830.44;5449247;26;19943;-70
2024/04/21 08:02:40;;;;;;;;;;;;;;;4.64;72.28;97828.34;5433825;26;19933;-71
2024/04/21 08:05:29;;;;;;;;;;;;;;;4.60;72.28;97829.97;5445736;26;19932;-72
2024/04/21 08:08:18;;;;;;;;;;;;;;;4.61;72.64;97833.44;5448522;26;19929;-72
2024/04/21 08:11:08;;;;;;;;;;;;;;;4.65;72.48;97840.72;5422685;26;20004;-71
2024/04/21 08:13:58;;;;;;;;;;;;;;;4.61;73.11;97845.03;5449204;26;19956;-71
2024/04/21 08:16:46;;;;;;;;;;;;;;;4.65;72.71;97842.59;5449310;26;19932;-72
2024/04/21 08:19:35;;;;;;;;;;;;;;;4.74;73.27;97843.66;5421186;26;19953;-72
2024/04/21 08:22:23;;;;;;;;;;;;;;;4.64;73.12;97847.19;5447874;26;19936;-72
2024/04/21 08:25:13;;;;;;;;;;;;;;;4.63;73.55;97850.91;5438593;26;20002;-71
2024/04/21 08:28:03;;;;;;;;;;;;;;;4.75;73.65;97853.31;5447219;26;19940;-71
2024/04/21 08:30:53;;;;;;;;;;;;;;;4.92;72.94;97861.88;5448462;26;20530;-74
2024/04/21 08:33:40;;;;;;;;;;;;;;;4.98;72.68;97855.38;5439516;26;19937;-73
2024/04/21 08:36:30;;;;;;;;;;;;;;;4.95;71.40;97860.50;5435165;26;19996;-74
2024/04/21 08:39:18;;;;;;;;;;;;;;;5.07;71.90;97862.88;5440277;26;19929;-73
2024/04/21 08:42:11;;;;;;;;;;;;;;;5.11;71.97;97863.94;5453497;26;20060;-72
2024/04/21 08:45:00;;;;;;;;;;;;;;;5.05;72.45;97868.53;5427365;26;19937;-72
2024/04/21 08:47:50;;;;;;;;;;;;;;;5.10;70.50;97868.50;5449770;26;19928;-69
2024/04/21 08:50:38;;;;;;;;;;;;;;;5.11;72.39;97877.38;5434484;26;19935;-70
2024/04/21 08:53:28;;;;;;;;;;;;;;;4.97;70.14;97878.00;5443863;26;19956;-70
2024/04/21 08:56:15;;;;;;;;;;;;;;;5.11;71.21;97878.19;5437019;26;19928;-71
2024/04/21 08:59:05;;;;;;;;;;;;;;;5.14;71.20;97877.66;5449955;26;20365;-73
2024/04/21 09:01:55;;;;;;;;;;;;;;;4.99;72.00;97875.03;5438500;26;19936;-72
2024/04/21 09:04:45;;;;;;;;;;;;;;;4.94;72.96;97878.53;5438363;26;19935;-71
2024/04/21 09:07:34;;;;;;;;;;;;;;;4.79;73.29;97881.28;5424012;26;19929;-71
2024/04/21 09:10:25;;;;;;;;;;;;;;;5.00;72.49;97882.00;5450126;26;19932;-70
2024/04/21 09:13:12;;;;;;;;;;;;;;;5.21;72.53;97882.72;5451634;26;19936;-68
2024/04/21 09:16:02;;;;;;;;;;;;;;;5.37;72.24;97875.38;5429353;26;19935;-74
2024/04/21 09:18:52;;;;;;;;;;;;;;;5.49;71.19;97873.97;5438350;26;20287;-70
2024/04/21 09:21:42;;;;;;;;;;;;;;;5.43;70.53;97876.94;5421485;26;20346;-69
2024/04/21 09:24:29;;;;;;;;;;;;;;;5.48;70.79;97875.03;5446868;26;19928;-69
2024/04/21 09:27:20;;;;;;;;;;;;;;;5.49;70.64;97870.47;5448399;26;19935;-73
2024/04/21 09:30:07;;;;;;;;;;;;;;;5.52;70.87;97877.97;5447220;26;19997;-71
2024/04/21 09:32:57;;;;;;;;;;;;;;;5.66;70.38;97884.38;5443303;26;20002;-71
2024/04/21 09:35:47;;;;;;;;;;;;;;;5.77;70.58;97885.09;5445666;26;19939;-70
2024/04/21 09:38:37;;;;;;;;;;;;;;;5.77;70.37;97887.81;5420670;26;19940;-70
2024/04/21 09:41:24;;;;;;;;;;;;;;;5.84;69.72;97892.88;5442196;26;19936;-72
2024/04/21 09:44:17;;;;;;;;;;;;;;;5.50;69.30;97890.94;5427020;26;19936;-72
2024/04/21 09:47:06;;;;;;;;;;;;;;;5.50;69.62;97893.63;5427756;26;19936;-71
2024/04/21 09:49:56;;;;;;;;;;;;;;;5.64;69.07;97891.91;5427583;26;19928;-69
2024/04/21 09:52:49;;;;;;;;;;;;;;;5.53;68.62;97893.06;5449515;26;19932;-71
2024/04/21 09:55:40;;;;;;;;;;;;;;;5.64;70.32;97891.91;5425309;26;20249;-73
2024/04/21 09:58:27;;;;;;;;;;;;;;;5.79;69.92;97902.59;5440949;26;19928;-73
2024/04/21 10:01:18;;;;;;;;;;;;;;;5.83;68.15;97889.38;5440769;26;19933;-73
2024/04/21 10:04:07;;;;;;;;;;;;;;;6.03;68.91;97889.25;5445515;26;19940;-81
2024/04/21 10:06:57;;;;;;;;;;;;;;;6.03;68.15;97891.16;5448052;26;19928;-82
2024/04/21 10:09:48;;;;;;;;;;;;;;;5.83;69.45;97889.38;5440077;26;19936;-73
2024/04/21 10:12:37;;;;;;;;;;;;;;;6.21;68.67;97887.75;5450418;26;19942;-73
2024/04/21 10:15:25;;;;;;;;;;;;;;;6.15;68.33;97891.56;5438719;26;19933;-74
2024/04/21 10:18:23;;;;;;;;;;;;;;;6.13;69.45;97898.34;5436437;26;20031;-72
2024/04/21 10:21:10;;;;;;;;;;;;;;;6.26;68.23;97897.69;5435655;26;19932;-71
2024/04/21 10:24:01;;;;;;;;;;;;;;;6.41;66.96;97896.75;5416849;26;19952;-76
2024/04/21 10:27:00;;;;;;;;;;;;;;;6.39;66.34;97897.03;5408282;26;19929;-75
2024/04/21 10:29:50;;;;;;;;;;;;;;;6.36;66.65;97902.19;5447351;26;20300;-73
2024/04/21 10:32:37;;;;;;;;;;;;;;;6.40;66.08;97897.84;5412494;26;19929;-72
2024/04/21 10:35:27;;;;;;;;;;;;;;;6.44;66.76;97909.66;5418959;26;19936;-74
2024/04/21 10:38:15;;;;;;;;;;;;;;;6.49;65.74;97898.81;5451659;26;19935;-79
2024/04/21 10:41:05;;;;;;;;;;;;;;;6.48;65.73;97910.72;5420477;26;19982;-85
2024/04/21 10:43:55;;;;;;;;;;;;;;;6.70;66.39;97908.31;5439436;26;19952;-76
2024/04/21 10:46:45;;;;;;;;;;;;;;;6.41;67.07;97904.84;5444704;26;19929;-74
2024/04/21 10:49:32;;;;;;;;;;;;;;;6.42;68.69;97909.16;5424763;26;19937;-76
2024/04/21 10:52:22;;;;;;;;;;;;;;;6.70;66.95;97908.31;5420964;26;19997;-76
2024/04/21 10:55:10;;;;;;;;;;;;;;;6.60;63.80;97911.13;5420352;26;19948;-76
2024/04/21 10:57:59;;;;;;;;;;;;;;;6.84;65.12;97903.06;5417650;26;20332;-75
2024/04/21 11:00:49;;;;;;;;;;;;;;;6.71;66.65;97909.94;5423623;26;20001;-74
2024/04/21 11:03:39;;;;;;;;;;;;;;;6.91;65.33;97908.09;5404958;26;19936;-75
2024/04/21 11:06:26;;;;;;;;;;;;;;;6.78;64.71;97915.00;5419701;26;20005;-74
2024/04/21 11:09:16;;;;;;;;;;;;;;;7.00;63.26;97911.78;5435987;26;19936;-73
2024/04/21 11:12:06;;;;;;;;;;;;;;;6.95;64.30;97901.84;5449846;26;20259;-72
2024/04/21 11:14:56;;;;;;;;;;;;;;;6.96;64.59;97903.44;5444562;26;20379;-72
2024/04/21 11:17:48;;;;;;;;;;;;;;;6.85;64.85;97904.66;5441042;26;20275;-73
2024/04/21 11:20:36;;;;;;;;;;;;;;;6.93;63.91;97909.44;5439641;26;19928;-74
2024/04/21 11:23:25;;;;;;;;;;;;;;;6.80;62.37;97899.31;5416772;26;19996;-73
2024/04/21 11:26:15;;;;;;;;;;;;;;;6.89;62.40;97908.41;5437498;26;20367;-73
2024/04/21 11:29:05;;;;;;;;;;;;;;;6.90;62.48;97906.50;5437878;26;20272;-73
2024/04/21 11:31:52;;;;;;;;;;;;;;;7.02;62.82;97909.59;5440433;26;19994;-74
2024/04/21 11:34:46;;;;;;;;;;;;;;;7.04;63.39;97912.84;5418105;26;19956;-73
2024/04/21 11:37:33;;;;;;;;;;;;;;;6.80;64.88;97910.91;5421846;26;19944;-72
2024/04/21 11:40:23;;;;;;;;;;;;;;;6.68;64.72;97912.41;5424017;26;19928;-72
2024/04/21 11:43:10;;;;;;;;;;;;;;;6.80;64.59;97912.81;5444743;26;19928;-72
2024/04/21 11:46:03;;;;;;;;;;;;;;;6.77;65.18;97914.22;5430924;26;19934;-72
2024/04/21 11:48:51;;;;;;;;;;;;;;;6.85;65.25;97917.34;5448837;26;19935;-72
2024/04/21 11:51:44;;;;;;;;;;;;;;;6.80;64.66;97921.72;5450018;26;19938;-75
2024/04/21 11:54:31;;;;;;;;;;;;;;;6.92;64.83;97923.22;5444271;26;19941;-72
2024/04/21 11:57:23;;;;;;;;;;;;;;;6.95;64.95;97919.94;5419747;26;20061;-72
2024/04/21 12:00:11;;;;;;;;;;;;;;;7.12;65.19;97922.19;5442446;26;19936;-72
2024/04/21 12:03:01;;;;;;;;;;;;;;;7.16;63.19;97921.31;5453154;26;19936;-72
2024/04/21 12:05:49;;;;;;;;;;;;;;;7.10;63.29;97925.19;5444271;26;19953;-72
2024/04/21 12:08:42;;;;;;;;;;;;;;;7.12;63.96;97925.69;5418234;26;20435;-72
2024/04/21 12:11:32;;;;;;;;;;;;;;;7.49;62.35;97924.94;5440250;26;19928;-72
2024/04/21 12:14:24;;;;;;;;;;;;;;;7.61;61.26;97924.53;5449249;26;19929;-73
2024/04/21 12:17:17;;;;;;;;;;;;;;;7.52;60.22;97937.09;5438626;26;20001;-73
2024/04/21 12:20:04;;;;;;;;;;;;;;;7.81;60.09;97926.94;5428105;26;19928;-73
2024/04/21 12:22:54;;;;;;;;;;;;;;;8.12;61.32;97930.00;5447233;26;19929;-73
2024/04/21 12:25:44;;;;;;;;;;;;;;;8.06;59.79;97924.97;5422404;26;19957;-71
2024/04/21 12:28:34;;;;;;;;;;;;;;;8.24;59.63;97929.53;5443784;26;19936;-71
2024/04/21 12:31:21;;;;;;;;;;;;;;;8.19;58.96;97926.91;5440401;26;19944;-71
2024/04/21 12:34:12;;;;;;;;;;;;;;;8.11;59.48;97922.97;5405568;26;19948;-70
2024/04/21 12:36:59;;;;;;;;;;;;;;;8.11;59.63;97922.19;5420959;26;19929;-70
2024/04/21 12:39:49;;;;;;;;;;;;;;;8.04;60.91;97929.84;5439816;26;19935;-70
2024/04/21 12:42:40;;;;;;;;;;;;;;;7.97;60.69;97924.81;5422963;26;19937;-70
2024/04/21 12:45:29;;;;;;;;;;;;;;;8.00;60.11;97931.56;5436320;26;20004;-70
2024/04/21 12:48:20;;;;;;;;;;;;;;;8.02;60.59;97932.06;5444803;26;19937;-70
2024/04/21 12:51:10;;;;;;;;;;;;;;;7.86;60.29;97934.97;5443403;26;19929;-70
2024/04/21 12:53:57;;;;;;;;;;;;;;;7.57;63.21;97945.94;5436597;26;19929;-70
2024/04/21 12:56:46;;;;;;;;;;;;;;;7.28;64.75;97951.44;5434318;26;19947;-72
2024/04/21 12:59:39;;;;;;;;;;;;;;;7.09;67.05;97947.91;5439966;26;19939;-70
2024/04/21 13:02:33;;;;;;;;;;;;;;;6.71;68.24;97955.84;5440312;26;19934;-70
2024/04/21 13:05:21;;;;;;;;;;;;;;;6.29;69.26;97962.69;5403978;26;19961;-72
2024/04/21 13:08:10;;;;;;;;;;;;;;;6.29;70.02;97959.19;5410460;26;19928;-71
2024/04/21 13:11:00;;;;;;;;;;;;;;;6.06;69.47;97960.69;5436860;26;19963;-70
2024/04/21 13:13:47;;;;;;;;;;;;;;;6.13;70.72;97963.09;5417984;26;19939;-70
2024/04/21 13:16:40;;;;;;;;;;;;;;;6.17;70.90;97964.91;5423805;26;19994;-70
2024/04/21 13:19:27;;;;;;;;;;;;;;;6.39;72.17;97959.09;5446355;26;19929;-73
2024/04/21 13:22:17;;;;;;;;;;;;;;;6.40;72.21;97968.00;5420250;26;19935;-78
2024/04/21 13:25:06;;;;;;;;;;;;;;;6.27;72.68;97970.25;5434629;26;20746;-75
2024/04/21 13:27:56;;;;;;;;;;;;;;;6.35;73.94;97966.16;5433240;26;19944;-73
2024/04/21 13:30:43;;;;;;;;;;;;;;;6.38;74.24;97967.47;5445478;26;20001;-73
2024/04/21 13:33:35;;;;;;;;;;;;;;;6.39;73.98;97974.47;5411441;26;19929;-71
2024/04/21 13:36:23;;;;;;;;;;;;;;;6.32;74.31;97965.91;5417250;26;19929;-73
2024/04/21 13:39:20;;;;;;;;;;;;;;;6.33;73.80;97978.28;5420974;26;19940;-71
2024/04/21 13:42:07;;;;;;;;;;;;;;;6.31;74.87;97975.88;5443326;26;20352;-72
2024/04/21 13:44:57;;;;;;;;;;;;;;;6.55;75.63;97975.94;5444678;26;20691;-73
2024/04/21 13:47:44;;;;;;;;;;;;;;;6.52;74.94;97973.84;5420323;26;19940;-73
2024/04/21 13:50:37;;;;;;;;;;;;;;;6.55;73.09;97987.56;5444679;26;19937;-73
2024/04/21 13:53:27;;;;;;;;;;;;;;;6.55;73.03;97984.88;5444236;26;20453;-79
2024/04/21 13:56:17;;;;;;;;;;;;;;;6.41;73.18;97980.41;5417765;26;20440;-86
2024/04/21 13:59:07;;;;;;;;;;;;;;;6.32;73.04;97985.59;5444350;26;19934;-77
2024/04/21 14:01:54;;;;;;;;;;;;;;;6.53;72.44;97989.72;5441705;26;20375;-79
2024/04/21 14:04:44;;;;;;;;;;;;;;;6.42;72.14;97982.00;5437989;26;19936;-77
2024/04/21 14:07:34;;;;;;;;;;;;;;;6.41;72.25;97993.91;5437662;26;19929;-77
2024/04/21 14:10:25;;;;;;;;;;;;;;;6.26;72.91;97990.22;5418301;26;19937;-80
2024/04/21 14:13:12;;;;;;;;;;;;;;;6.45;73.62;97994.94;5422028;26;19949;-79
2024/04/21 14:16:03;;;;;;;;;;;;;;;6.43;73.15;97997.09;5451838;26;19941;-78
2024/04/21 14:18:50;;;;;;;;;;;;;;;6.23;72.11;97996.19;5462344;26;19956;-80
2024/04/21 14:21:41;;;;;;;;;;;;;;;6.28;72.70;98008.81;5445458;26;19928;-78
2024/04/21 14:24:31;;;;;;;;;;;;;;;6.18;72.05;98015.13;5443401;26;19936;-77
2024/04/21 14:27:21;;;;;;;;;;;;;;;6.23;71.83;98011.53;5446000;26;19928;-78
2024/04/21 14:30:09;;;;;;;;;;;;;;;6.16;72.14;98019.97;5440048;26;19933;-78
2024/04/21 14:33:00;;;;;;;;;;;;;;;6.26;72.30;98032.59;5444245;26;20001;-76
2024/04/21 14:35:48;;;;;;;;;;;;;;;6.30;71.64;98022.84;5439743;26;19956;-75
2024/04/21 14:38:38;;;;;;;;;;;;;;;6.33;70.43;98021.47;5442813;26;19960;-75
2024/04/21 14:41:29;;;;;;;;;;;;;;;6.28;70.01;98035.78;5439908;26;19929;-76
2024/04/21 14:44:20;;;;;;;;;;;;;;;6.26;69.90;98016.41;5445316;26;19982;-76
2024/04/21 14:47:07;;;;;;;;;;;;;;;6.23;70.03;98033.97;5420877;26;19928;-76
2024/04/21 14:49:57;;;;;;;;;;;;;;;6.12;70.14;98043.19;5421035;26;19928;-76
2024/04/21 14:52:44;;;;;;;;;;;;;;;6.10;69.78;98050.75;5418529;26;20272;-75
2024/04/21 14:55:34;;;;;;;;;;;;;;;6.13;70.40;98044.81;5417731;26;19997;-76